Airfield :







YOU CAN JOIN US ON...

 
LOGIN :

Register | Disclaimer

   EN    FR    IT 

 









Legend :    VFR   Marginal VFR   IFR   Intensive IFR   Very Intensive IFR
Visi :
Ceiling :
>= 8 km
>= 3000ft
5 to 8 km
1000 to 3000 ft
1500m to 5 km
500 to 1000 ft
800 to 1500m
200 to 500 ft
< 800m
< 200 ft
Symbols :   Thunderstorms  Fog  Heavy snow  Heavy precipitations  Wind > 20 kt






- Airport Elevation : 92 ft
- IATA code : YZX


CYZX - CFB Greenwood

CURRENT METAR :
  • 232300Z 23011G16KT 15SM BKN016 03/02 A3028 RMK SC6 SLP254

EXPIRED METARs :
  • 232236Z 23011KT 15SM BKN016 03/01 A3028 RMK SC6 SLP255
  • 232200Z 24008KT 15SM FEW015 SCT250 03/01 A3026 RMK SC2CI2 SLP247
  • 232100Z 24013KT 15SM FEW030 SCT250 04/M00 A3026 RMK SC1CI2 SLP248

TAF AMD TAF CYZX
Valid from the 23 at 22:00 until the 24 at 18:00 UTC


232252Z 2322/2418 23010KT P6SM SCT015 BKN250
TEMPO 2322/2401 BKN015
FM240100 25005KT P6SM FEW015
FM240600 VRB03KT P6SM FEW012 BKN200
PROB30 2408/2410 1/2SM FZFG
FM241000 04005KT P6SM FEW005 SCT100 BKN200
PROB30 2410/2413 1/2SM FZFG VV005
FM241300 05008KT P6SM SCT012 SCT100
FM241600 05007KT P6SM SCT015 SCT100 BKN160 RMK NXT FCST BY 240000Z



MET'MAP, your aeronautical weather chart ! - Copyright ORBIFLY December 2007 - Disclaimer

ORBIFLY MET'MAP TEAM :

Programming & Development : Alexandra Zaïnal
Concept & original design : Baudouin d'Aumeries
Assistance for programming : Marc-Olivier Méhu
Technical & hardware support : Manuel Goepfert

Contact : metmap@orbifly.com




SOURCES & CREDITS :

   NOAA